createdAt,value
2023-04-06T00:03:07.072Z,23.10
2023-04-06T00:06:17.336Z,23.10
2023-04-06T00:09:30.121Z,23.30
2023-04-06T00:12:44.994Z,23.40
2023-04-06T00:15:57.832Z,23.60
2023-04-06T00:19:08.117Z,23.60
2023-04-06T00:22:18.920Z,23.50
2023-04-06T00:25:32.543Z,23.30
2023-04-06T00:28:41.974Z,23.20
2023-04-06T00:31:53.361Z,23.20
2023-04-06T00:35:04.695Z,23.30
2023-04-06T00:38:15.673Z,23.30
2023-04-06T00:41:27.273Z,23.20
2023-04-06T00:44:39.509Z,23.20
2023-04-06T00:47:49.592Z,23.10
2023-04-06T00:51:00.919Z,23.10
2023-04-06T00:54:12.792Z,23.10
2023-04-06T00:57:23.024Z,23.00
2023-04-06T01:00:32.292Z,23.00
2023-04-06T01:03:43.337Z,23.00
2023-04-06T01:06:55.859Z,23.00
2023-04-06T01:10:07.785Z,23.00
2023-04-06T01:13:17.884Z,23.00
2023-04-06T01:16:27.142Z,22.90
2023-04-06T01:19:34.704Z,22.90
2023-04-06T01:22:46.405Z,22.90
2023-04-06T01:25:55.813Z,22.90
2023-04-06T01:29:06.226Z,22.80
2023-04-06T01:32:15.526Z,22.80
2023-04-06T01:35:26.784Z,22.80
2023-04-06T01:38:39.066Z,22.90
2023-04-06T01:41:50.428Z,22.80
2023-04-06T01:45:02.275Z,22.80
2023-04-06T01:48:14.881Z,22.80
2023-04-06T01:51:28.370Z,22.80
2023-04-06T01:54:43.085Z,22.80
2023-04-06T01:57:52.249Z,22.70
2023-04-06T02:01:03.251Z,22.70
2023-04-06T02:04:15.635Z,22.70
2023-04-06T02:07:28.740Z,22.70
2023-04-06T02:10:37.336Z,22.60
2023-04-06T02:13:48.575Z,22.70
2023-04-06T02:17:03.228Z,22.60
2023-04-06T02:20:18.669Z,22.60
2023-04-06T02:23:29.337Z,22.60
2023-04-06T02:26:37.518Z,22.50
2023-04-06T02:29:48.299Z,22.50
2023-04-06T02:32:59.615Z,22.50
2023-04-06T02:36:11.210Z,22.50
2023-04-06T02:39:22.189Z,22.40
2023-04-06T02:42:30.923Z,22.40
2023-04-06T02:45:40.240Z,22.40
2023-04-06T02:48:51.227Z,22.40
2023-04-06T02:52:00.596Z,22.40
2023-04-06T02:55:14.232Z,22.30
2023-04-06T02:58:26.142Z,22.40
2023-04-06T03:01:37.751Z,22.40
2023-04-06T03:04:56.215Z,22.40
2023-04-06T03:08:06.331Z,22.30
2023-04-06T03:11:21.020Z,22.30
2023-04-06T03:14:31.657Z,22.30
2023-04-06T03:17:43.419Z,22.30
2023-04-06T03:20:53.348Z,22.30
2023-04-06T03:24:06.631Z,22.20
2023-04-06T03:27:21.702Z,22.20
2023-04-06T03:30:34.647Z,22.20
2023-04-06T03:33:43.973Z,22.20
2023-04-06T03:37:07.076Z,22.30
2023-04-06T03:40:11.835Z,22.20
2023-04-06T03:43:23.674Z,22.20
2023-04-06T03:46:36.680Z,22.20
2023-04-06T03:53:05.510Z,22.10
2023-04-06T03:56:18.010Z,22.10
2023-04-06T03:59:27.608Z,22.20
2023-04-06T04:02:40.593Z,22.10
2023-04-06T04:05:50.754Z,22.10
2023-04-06T04:09:03.491Z,22.10
2023-04-06T04:12:17.984Z,22.10
2023-04-06T04:15:28.246Z,22.10
2023-04-06T04:18:40.037Z,22.10
2023-04-06T04:21:55.671Z,22.10
2023-04-06T04:25:07.393Z,22.10
2023-04-06T04:28:18.355Z,22.10
2023-04-06T04:31:27.413Z,22.10
2023-04-06T04:34:41.810Z,22.10
2023-04-06T04:37:52.955Z,22.00
2023-04-06T04:41:04.541Z,22.00
2023-04-06T04:44:15.043Z,22.10
2023-04-06T04:47:26.185Z,22.10
2023-04-06T04:50:35.557Z,22.00
2023-04-06T04:53:47.670Z,22.00
2023-04-06T04:56:58.513Z,22.00
2023-04-06T05:00:09.006Z,22.00
2023-04-06T05:03:23.775Z,22.00
2023-04-06T05:06:35.707Z,22.00
2023-04-06T05:09:47.798Z,22.00
2023-04-06T05:13:02.096Z,22.00
2023-04-06T05:16:13.010Z,22.00
2023-04-06T05:19:23.066Z,22.00
2023-04-06T05:22:35.039Z,22.00
2023-04-06T05:25:47.992Z,22.00
2023-04-06T05:29:00.875Z,22.00
2023-04-06T05:32:10.942Z,22.00
2023-04-06T05:35:22.614Z,22.00
2023-04-06T05:38:34.062Z,21.90
2023-04-06T05:41:47.697Z,21.90
2023-04-06T05:44:58.688Z,21.90
2023-04-06T05:48:09.285Z,21.90
2023-04-06T05:51:22.771Z,21.90
2023-04-06T05:54:32.070Z,21.90
2023-04-06T05:57:42.720Z,21.90
2023-04-06T06:00:56.364Z,21.90
2023-04-06T06:04:07.216Z,21.90
2023-04-06T06:07:18.868Z,21.90
2023-04-06T06:10:29.908Z,21.80
2023-04-06T06:13:43.385Z,21.80
2023-04-06T06:16:50.562Z,21.80
2023-04-06T06:20:04.028Z,21.80
2023-04-06T06:23:14.921Z,21.80
2023-04-06T06:26:26.031Z,21.80
2023-04-06T06:29:38.547Z,21.80
2023-04-06T06:32:49.391Z,21.80
2023-04-06T06:36:03.205Z,21.80
2023-04-06T06:39:13.200Z,21.80
2023-04-06T06:42:24.642Z,21.80
2023-04-06T06:45:35.873Z,21.80
2023-04-06T06:48:48.643Z,21.80
2023-04-06T06:52:03.193Z,21.70
2023-04-06T06:55:18.672Z,21.70
2023-04-06T06:58:31.904Z,21.70
2023-04-06T07:01:46.171Z,21.70
2023-04-06T07:05:00.345Z,21.70
2023-04-06T07:08:10.252Z,21.70
2023-04-06T07:11:20.185Z,21.70
2023-04-06T07:14:30.321Z,21.70
2023-04-06T07:17:40.956Z,21.70
2023-04-06T07:20:51.107Z,21.60
2023-04-06T07:24:03.887Z,21.60
2023-04-06T07:27:17.269Z,21.60
2023-04-06T07:30:26.642Z,21.70
2023-04-06T07:33:36.489Z,21.70
2023-04-06T07:36:48.576Z,21.70
2023-04-06T07:39:56.827Z,21.70
2023-04-06T07:43:10.676Z,21.70
2023-04-06T07:46:23.713Z,21.60
2023-04-06T07:49:35.603Z,21.60
2023-04-06T07:52:48.834Z,21.60
2023-04-06T07:56:01.460Z,21.60
2023-04-06T07:59:11.579Z,21.60
2023-04-06T08:02:24.488Z,21.60
2023-04-06T08:05:38.708Z,21.60
2023-04-06T08:08:47.917Z,21.50
2023-04-06T08:11:59.077Z,21.50
2023-04-06T08:15:09.320Z,21.50
2023-04-06T08:18:23.055Z,21.50
2023-04-06T08:21:34.727Z,21.50
2023-04-06T08:24:47.749Z,21.50
2023-04-06T08:27:57.885Z,21.50
2023-04-06T08:31:09.853Z,21.50
2023-04-06T08:34:18.624Z,21.50
2023-04-06T08:37:29.229Z,21.50
2023-04-06T08:40:44.194Z,21.40
2023-04-06T08:43:54.861Z,21.40
2023-04-06T08:47:06.540Z,21.40
2023-04-06T08:50:17.978Z,21.40
2023-04-06T08:53:27.308Z,21.40
2023-04-06T08:56:39.578Z,21.40
2023-04-06T08:59:53.518Z,21.40
2023-04-06T09:03:06.920Z,21.40
2023-04-06T09:06:14.593Z,21.40
2023-04-06T09:09:27.656Z,21.40
2023-04-06T09:12:37.858Z,21.40
2023-04-06T09:15:52.112Z,21.40
2023-04-06T09:19:06.439Z,21.40
2023-04-06T09:22:20.032Z,21.30
2023-04-06T09:25:30.334Z,21.30
2023-04-06T09:28:49.109Z,21.30
2023-04-06T09:32:08.210Z,21.30
2023-04-06T09:35:23.573Z,21.30
2023-04-06T09:38:33.754Z,21.30
2023-04-06T09:41:47.261Z,21.30
2023-04-06T09:44:57.662Z,21.30
2023-04-06T09:48:08.984Z,21.30
2023-04-06T09:51:18.069Z,21.20
2023-04-06T09:54:29.728Z,21.20
2023-04-06T09:57:44.499Z,21.20
2023-04-06T10:00:56.930Z,21.20
2023-04-06T10:04:12.926Z,21.20
2023-04-06T10:07:23.271Z,21.20
2023-04-06T10:10:34.700Z,21.20
2023-04-06T10:13:45.793Z,21.10
2023-04-06T10:16:57.533Z,21.10
2023-04-06T10:20:07.372Z,21.10
2023-04-06T10:23:22.274Z,21.10
2023-04-06T10:26:34.466Z,21.10
2023-04-06T10:29:51.388Z,21.10
2023-04-06T10:33:02.426Z,21.10
2023-04-06T10:36:18.034Z,21.20
2023-04-06T10:39:31.222Z,21.10
2023-04-06T10:42:46.165Z,21.10
2023-04-06T10:46:04.196Z,21.10
2023-04-06T10:49:20.915Z,21.10
2023-04-06T10:52:34.437Z,21.10
2023-04-06T10:55:43.767Z,21.00
2023-04-06T10:58:53.798Z,21.20
2023-04-06T11:02:04.649Z,21.40
2023-04-06T11:05:20.520Z,21.50
2023-04-06T11:08:48.578Z,21.60
2023-04-06T11:12:00.128Z,21.60
2023-04-06T11:15:14.099Z,21.50
2023-04-06T11:18:28.918Z,21.40
2023-04-06T11:21:46.306Z,21.40
2023-04-06T11:24:57.556Z,21.30
2023-04-06T11:28:09.329Z,21.40
2023-04-06T11:31:20.462Z,21.50
2023-04-06T11:34:32.680Z,21.70
2023-04-06T11:37:43.155Z,21.80
2023-04-06T11:40:54.978Z,22.00
2023-04-06T11:44:08.648Z,22.10
2023-04-06T11:47:20.417Z,22.30
2023-04-06T11:50:33.594Z,22.50
2023-04-06T11:53:50.720Z,22.70
2023-04-06T11:57:02.174Z,22.80
2023-04-06T12:00:17.330Z,23.00
2023-04-06T12:03:28.171Z,23.20
2023-04-06T12:06:38.937Z,23.30
2023-04-06T12:09:51.253Z,23.20
2023-04-06T12:13:03.633Z,23.20
2023-04-06T12:16:12.943Z,23.10
2023-04-06T12:19:25.299Z,23.00
2023-04-06T12:22:39.904Z,23.10
2023-04-06T12:25:48.201Z,23.20
2023-04-06T12:28:55.946Z,23.40
2023-04-06T12:32:07.432Z,23.40
2023-04-06T12:35:16.619Z,23.40
2023-04-06T12:38:29.466Z,23.40
2023-04-06T12:41:42.106Z,23.30
2023-04-06T12:44:52.549Z,23.20
2023-04-06T12:48:05.551Z,23.20
2023-04-06T12:51:16.631Z,23.30
2023-04-06T12:54:28.115Z,23.40
2023-04-06T12:57:38.690Z,23.50
2023-04-06T13:00:50.098Z,23.60
2023-04-06T13:04:00.071Z,23.60
2023-04-06T13:07:12.162Z,23.60
2023-04-06T13:10:22.660Z,23.60
2023-04-06T13:13:33.204Z,23.60
2023-04-06T13:16:43.349Z,23.50
2023-04-06T13:19:53.431Z,23.50
2023-04-06T13:23:06.236Z,23.40
2023-04-06T13:26:18.640Z,23.40
2023-04-06T13:29:28.920Z,23.40
2023-04-06T13:32:38.896Z,23.50
2023-04-06T13:39:10.432Z,23.70
2023-04-06T13:42:21.438Z,23.70
2023-04-06T13:45:31.006Z,23.70
2023-04-06T13:48:41.254Z,23.70
2023-04-06T13:51:52.310Z,23.60
2023-04-06T13:55:05.130Z,23.60
2023-04-06T13:58:16.179Z,23.50
2023-04-06T14:01:30.031Z,23.50
2023-04-06T14:04:42.859Z,23.40
2023-04-06T14:07:54.432Z,23.40
2023-04-06T14:11:06.879Z,23.40
2023-04-06T14:14:18.339Z,23.40
2023-04-06T14:17:29.063Z,23.50
2023-04-06T14:20:39.674Z,23.60
2023-04-06T14:23:55.234Z,23.70
2023-04-06T14:27:06.647Z,23.80
2023-04-06T14:30:19.882Z,23.90
2023-04-06T14:33:27.963Z,23.90
2023-04-06T14:36:39.935Z,23.80
2023-04-06T14:39:51.554Z,23.70
2023-04-06T14:43:05.185Z,23.60
2023-04-06T14:46:14.503Z,23.50
2023-04-06T14:49:26.343Z,23.50
2023-04-06T14:52:38.087Z,23.50
2023-04-06T14:55:48.168Z,23.40
2023-04-06T14:58:58.627Z,23.40
2023-04-06T15:02:09.477Z,23.40
2023-04-06T15:05:21.183Z,23.40
2023-04-06T15:08:31.992Z,23.40
2023-04-06T15:11:43.960Z,23.40
2023-04-06T15:14:53.162Z,23.50
2023-04-06T15:18:04.092Z,23.60
2023-04-06T15:21:13.111Z,23.70
2023-04-06T15:24:24.871Z,23.80
2023-04-06T15:27:33.755Z,23.80
2023-04-06T15:30:43.562Z,23.70
2023-04-06T15:33:53.420Z,23.70
2023-04-06T15:37:07.464Z,23.70
2023-04-06T15:40:18.618Z,23.60
2023-04-06T15:43:28.782Z,23.60
2023-04-06T15:46:37.269Z,23.70
2023-04-06T15:49:49.793Z,23.80
2023-04-06T15:53:00.449Z,23.90
2023-04-06T15:56:10.164Z,24.00
2023-04-06T15:59:24.441Z,23.90
2023-04-06T16:02:37.249Z,24.00
2023-04-06T16:05:59.155Z,24.00
2023-04-06T16:08:57.590Z,24.00
2023-04-06T16:12:11.466Z,23.90
2023-04-06T16:15:22.036Z,23.90
2023-04-06T16:21:44.815Z,23.80
2023-04-06T16:24:55.964Z,23.90
2023-04-06T16:28:07.842Z,23.90
2023-04-06T16:31:24.892Z,23.90
2023-04-06T16:34:39.366Z,23.90
2023-04-06T16:37:50.916Z,23.90
2023-04-06T16:41:09.523Z,24.00
2023-04-06T16:44:19.877Z,24.10
2023-04-06T16:47:29.845Z,24.10
2023-04-06T16:50:44.812Z,24.10
2023-04-06T16:53:52.997Z,24.10
2023-04-06T16:57:04.371Z,24.20
2023-04-06T17:00:17.096Z,24.30
2023-04-06T17:03:30.559Z,24.30
2023-04-06T17:06:40.797Z,24.30
2023-04-06T17:09:54.814Z,24.30
2023-04-06T17:13:06.787Z,24.30
2023-04-06T17:16:17.257Z,24.20
2023-04-06T17:19:25.924Z,24.20
2023-04-06T17:22:35.894Z,24.20
2023-04-06T17:25:46.065Z,24.20
2023-04-06T17:28:56.767Z,24.20
2023-04-06T17:32:10.886Z,24.20
2023-04-06T17:35:24.595Z,24.10
2023-04-06T17:38:35.858Z,24.10
2023-04-06T17:41:47.122Z,24.10
2023-04-06T17:44:56.233Z,24.10
2023-04-06T17:48:05.534Z,24.20
2023-04-06T17:51:14.881Z,24.20
2023-04-06T17:54:28.831Z,24.20
2023-04-06T17:57:41.051Z,24.30
2023-04-06T18:00:50.234Z,24.20
2023-04-06T18:04:03.809Z,24.30
2023-04-06T18:07:15.272Z,24.30
2023-04-06T18:10:27.295Z,24.20
2023-04-06T18:13:40.622Z,24.20
2023-04-06T18:16:52.760Z,24.20
2023-04-06T18:20:02.613Z,24.20
2023-04-06T18:23:11.478Z,24.20
2023-04-06T18:26:27.927Z,24.20
2023-04-06T18:29:40.294Z,24.20
2023-04-06T18:32:50.221Z,24.20
2023-04-06T18:36:02.341Z,24.20
2023-04-06T18:39:14.078Z,24.20
2023-04-06T18:42:25.825Z,24.20
2023-04-06T18:45:41.344Z,24.10
2023-04-06T18:48:55.511Z,24.10
2023-04-06T18:52:05.465Z,24.10
2023-04-06T18:55:16.603Z,24.10
2023-04-06T18:58:27.338Z,24.10
2023-04-06T19:01:39.567Z,24.00
2023-04-06T19:04:51.265Z,24.00
2023-04-06T19:08:03.034Z,23.90
2023-04-06T19:11:11.539Z,23.90
2023-04-06T19:14:25.126Z,23.80
2023-04-06T19:17:37.020Z,23.80
2023-04-06T19:20:51.292Z,23.80
2023-04-06T19:24:03.818Z,23.80
2023-04-06T19:27:13.000Z,23.80
2023-04-06T19:30:26.485Z,23.80
2023-04-06T19:33:37.547Z,23.80
2023-04-06T19:36:48.562Z,23.70
2023-04-06T19:40:02.289Z,23.80
2023-04-06T19:43:13.194Z,23.80
2023-04-06T19:46:21.956Z,23.80
2023-04-06T19:49:33.776Z,23.80
2023-04-06T19:52:46.217Z,23.80
2023-04-06T19:55:55.570Z,23.90
2023-04-06T19:59:05.201Z,23.90
2023-04-06T20:02:15.153Z,23.80
2023-04-06T20:05:26.264Z,23.80
2023-04-06T20:08:37.252Z,23.80
2023-04-06T20:11:49.192Z,23.70
2023-04-06T20:15:03.483Z,23.70
2023-04-06T20:18:14.809Z,23.70
2023-04-06T20:21:26.570Z,23.70
2023-04-06T20:24:35.487Z,23.60
2023-04-06T20:27:47.692Z,23.60
2023-04-06T20:30:59.210Z,23.70
2023-04-06T20:34:11.840Z,23.60
2023-04-06T20:37:22.936Z,23.70
2023-04-06T20:40:33.906Z,23.90
2023-04-06T20:43:44.581Z,24.00
2023-04-06T20:46:56.908Z,24.00
2023-04-06T20:50:11.143Z,23.90
2023-04-06T20:53:24.588Z,23.80
2023-04-06T20:56:35.299Z,23.80
2023-04-06T20:59:47.532Z,23.80
2023-04-06T21:02:55.848Z,23.70
2023-04-06T21:06:08.052Z,23.70
2023-04-06T21:09:21.381Z,23.70
2023-04-06T21:12:28.789Z,23.70
2023-04-06T21:15:36.839Z,23.70
2023-04-06T21:18:50.689Z,23.60
2023-04-06T21:22:03.541Z,23.60
2023-04-06T21:25:15.920Z,23.60
2023-04-06T21:28:26.629Z,23.60
2023-04-06T21:31:41.025Z,23.60
2023-04-06T21:34:51.826Z,23.60
2023-04-06T21:38:04.616Z,23.60
2023-04-06T21:41:15.183Z,23.70
2023-04-06T21:44:24.959Z,23.80
2023-04-06T21:47:35.512Z,23.80
2023-04-06T21:50:45.356Z,23.70
2023-04-06T21:54:07.190Z,23.70
2023-04-06T21:57:20.429Z,23.70
2023-04-06T22:00:27.381Z,23.80
2023-04-06T22:03:39.517Z,23.80
2023-04-06T22:06:49.434Z,23.70
2023-04-06T22:10:02.739Z,23.70
2023-04-06T22:13:09.280Z,23.80
2023-04-06T22:16:20.055Z,23.90
2023-04-06T22:19:31.060Z,23.90
2023-04-06T22:22:45.669Z,23.80
2023-04-06T22:25:55.537Z,23.80
2023-04-06T22:29:06.238Z,23.90
2023-04-06T22:32:16.994Z,23.90
2023-04-06T22:35:30.344Z,23.90
2023-04-06T22:38:41.301Z,23.80
2023-04-06T22:41:51.692Z,23.90
2023-04-06T22:45:03.261Z,23.90
2023-04-06T22:48:16.882Z,23.90
2023-04-06T22:51:29.706Z,23.90
2023-04-06T22:54:38.879Z,23.90
2023-04-06T22:57:51.348Z,23.90
2023-04-06T23:01:00.703Z,24.00
2023-04-06T23:04:11.655Z,23.90
2023-04-06T23:07:21.355Z,23.90
2023-04-06T23:10:32.997Z,23.90
2023-04-06T23:13:44.536Z,23.90
2023-04-06T23:16:56.332Z,23.90
2023-04-06T23:20:06.153Z,23.80
2023-04-06T23:23:16.562Z,23.80
2023-04-06T23:26:26.397Z,23.80
2023-04-06T23:29:35.867Z,23.80
2023-04-06T23:32:47.484Z,23.80
2023-04-06T23:35:58.500Z,23.70
2023-04-06T23:39:10.075Z,23.70
2023-04-06T23:42:20.974Z,23.70
2023-04-06T23:45:33.635Z,23.70
2023-04-06T23:48:43.278Z,23.60
2023-04-06T23:51:58.671Z,23.60
2023-04-06T23:55:12.953Z,23.70
2023-04-06T23:58:23.437Z,23.80
